Time;durP1;ratioP1;P1;durP2;ratioP2;P2;SDS_P1;SDS_P2;PMS_P1;PMS_P2;Temp;Humidity;BMP_temperature;BMP_pressure;BME280_temperature;BME280_humidity;BME280_pressure;Samples;Min_cycle;Max_cycle;Signal;HPM_P1;HPM_P2
2022/02/12 00:01:10;;;;;;;23.00;9.90;;;;;;;;;;5033130;28;20172;-50
2022/02/12 00:03:37;;;;;;;21.73;9.47;;;;;;;;;;5033118;28;20407;-50
2022/02/12 00:06:03;;;;;;;13.02;7.75;;;;;;;;;;5032707;28;20489;-50
2022/02/12 00:08:29;;;;;;;13.75;7.47;;;;;;;;;;5032720;28;20191;-50
2022/02/12 00:10:55;;;;;;;17.57;9.00;;;;;;;;;;5032694;28;20194;-49
2022/02/12 00:13:21;;;;;;;14.27;6.57;;;;;;;;;;5031649;28;20430;-50
2022/02/12 00:15:48;;;;;;;19.63;7.88;;;;;;;;;;5033075;28;20175;-51
2022/02/12 00:18:15;;;;;;;16.70;6.30;;;;;;;;;;5032342;28;20546;-51
2022/02/12 00:20:41;;;;;;;12.30;6.18;;;;;;;;;;5032219;28;20184;-50
2022/02/12 00:23:07;;;;;;;14.10;7.05;;;;;;;;;;5032429;28;20163;-51
2022/02/12 00:25:34;;;;;;;20.58;6.70;;;;;;;;;;5032180;28;20166;-49
2022/02/12 00:28:00;;;;;;;10.18;6.75;;;;;;;;;;5032313;28;20169;-48
2022/02/12 00:30:27;;;;;;;14.77;5.93;;;;;;;;;;5032819;28;20203;-47
2022/02/12 00:32:55;;;;;;;15.75;5.93;;;;;;;;;;5033646;28;20286;-48
2022/02/12 00:35:22;;;;;;;13.55;4.05;;;;;;;;;;5033048;28;20172;-48
2022/02/12 00:37:48;;;;;;;10.48;6.55;;;;;;;;;;5032938;28;20221;-49
2022/02/12 00:40:14;;;;;;;14.53;6.40;;;;;;;;;;5033001;28;20188;-49
2022/02/12 00:42:40;;;;;;;9.68;6.20;;;;;;;;;;5033228;28;20456;-49
2022/02/12 00:45:06;;;;;;;8.10;6.00;;;;;;;;;;5034143;28;20172;-50
2022/02/12 00:47:34;;;;;;;11.10;5.35;;;;;;;;;;5033819;28;20831;-49
2022/02/12 00:50:00;;;;;;;10.77;5.90;;;;;;;;;;5034467;28;20555;-48
2022/02/12 00:52:27;;;;;;;12.17;6.70;;;;;;;;;;5037141;28;20174;-48
2022/02/12 00:54:53;;;;;;;15.52;6.50;;;;;;;;;;5036027;28;20773;-47
2022/02/12 00:57:19;;;;;;;14.07;6.30;;;;;;;;;;5034273;28;20163;-47
2022/02/12 00:59:45;;;;;;;14.25;6.38;;;;;;;;;;5033752;28;20422;-47
2022/02/12 01:02:11;;;;;;;15.80;6.20;;;;;;;;;;5033492;28;20246;-49
2022/02/12 01:04:38;;;;;;;16.95;6.35;;;;;;;;;;5033246;28;20767;-47
2022/02/12 01:07:04;;;;;;;24.40;7.40;;;;;;;;;;5034150;28;20171;-47
2022/02/12 01:09:30;;;;;;;12.73;7.32;;;;;;;;;;5033626;28;21056;-47
2022/02/12 01:11:57;;;;;;;7.93;5.78;;;;;;;;;;5033040;28;20662;-47
2022/02/12 01:14:23;;;;;;;8.90;6.22;;;;;;;;;;5033959;28;20167;-47
2022/02/12 01:16:49;;;;;;;24.30;5.82;;;;;;;;;;5033818;28;20168;-48
2022/02/12 01:19:15;;;;;;;11.57;5.10;;;;;;;;;;5033565;28;20191;-48
2022/02/12 01:21:41;;;;;;;7.47;5.32;;;;;;;;;;5016056;28;20176;-47
2022/02/12 01:24:07;;;;;;;10.05;5.40;;;;;;;;;;5033816;28;20194;-48
2022/02/12 01:26:33;;;;;;;13.63;5.90;;;;;;;;;;5033707;28;20164;-49
2022/02/12 01:28:59;;;;;;;11.63;5.50;;;;;;;;;;5033193;28;20258;-47
2022/02/12 01:31:25;;;;;;;12.95;5.00;;;;;;;;;;5033621;28;20405;-47
2022/02/12 01:33:51;;;;;;;9.95;5.28;;;;;;;;;;5033739;28;20229;-46
2022/02/12 01:36:17;;;;;;;10.30;5.30;;;;;;;;;;5033403;28;20168;-47
2022/02/12 01:38:43;;;;;;;11.77;5.70;;;;;;;;;;5033462;28;20410;-47
2022/02/12 01:41:09;;;;;;;10.05;5.63;;;;;;;;;;5033335;28;20398;-47
2022/02/12 01:43:35;;;;;;;13.27;5.47;;;;;;;;;;5032378;28;20194;-47
2022/02/12 01:46:03;;;;;;;13.63;5.50;;;;;;;;;;5033537;28;20421;-47
2022/02/12 01:48:29;;;;;;;17.35;6.28;;;;;;;;;;5033351;28;20250;-47
2022/02/12 01:50:55;;;;;;;11.63;6.53;;;;;;;;;;5033275;28;20279;-47
2022/02/12 01:53:22;;;;;;;17.77;7.00;;;;;;;;;;5033589;28;20778;-46
2022/02/12 01:55:48;;;;;;;8.73;5.85;;;;;;;;;;5033408;28;20178;-50
2022/02/12 01:58:15;;;;;;;18.92;7.68;;;;;;;;;;5033271;28;20174;-49
2022/02/12 02:00:41;;;;;;;11.63;5.82;;;;;;;;;;5032196;28;20230;-47
2022/02/12 02:03:07;;;;;;;8.48;5.47;;;;;;;;;;5032954;28;20191;-47
2022/02/12 02:05:33;;;;;;;11.40;6.97;;;;;;;;;;5033031;28;20199;-46
2022/02/12 02:08:00;;;;;;;10.57;5.55;;;;;;;;;;5033010;28;20412;-47
2022/02/12 02:10:26;;;;;;;16.35;7.25;;;;;;;;;;5032617;28;20728;-47
2022/02/12 02:12:52;;;;;;;11.50;6.43;;;;;;;;;;5031910;28;20180;-46
2022/02/12 02:15:18;;;;;;;22.10;6.73;;;;;;;;;;5032831;28;20167;-47
2022/02/12 02:17:47;;;;;;;16.63;6.13;;;;;;;;;;5032653;28;20437;-47
2022/02/12 02:20:13;;;;;;;10.88;5.55;;;;;;;;;;5032522;28;20418;-47
2022/02/12 02:22:42;;;;;;;12.73;6.72;;;;;;;;;;5032520;28;20262;-47
2022/02/12 02:25:08;;;;;;;11.30;4.80;;;;;;;;;;5032678;28;20186;-49
2022/02/12 02:27:34;;;;;;;7.28;5.40;;;;;;;;;;5032487;28;20255;-48
2022/02/12 02:30:00;;;;;;;12.37;5.47;;;;;;;;;;5032050;28;20294;-48
2022/02/12 02:32:26;;;;;;;9.80;4.77;;;;;;;;;;5032283;28;20408;-47
2022/02/12 02:34:53;;;;;;;7.67;4.57;;;;;;;;;;5032416;28;20406;-48
2022/02/12 02:37:20;;;;;;;6.53;4.20;;;;;;;;;;5032373;28;20442;-47
2022/02/12 02:39:46;;;;;;;12.57;4.85;;;;;;;;;;5032056;28;20604;-49
2022/02/12 02:42:15;;;;;;;7.43;4.93;;;;;;;;;;5031358;28;20167;-48
2022/02/12 02:44:42;;;;;;;8.23;4.88;;;;;;;;;;5032174;28;20182;-47
2022/02/12 02:49:53;;;;;;;9.48;6.18;;;;;;;;;;5031966;28;20209;-47
2022/02/12 02:57:49;;;;;;;7.80;5.13;;;;;;;;;;5032126;28;20179;-47
2022/02/12 03:00:16;;;;;;;12.90;5.80;;;;;;;;;;5031713;28;20187;-50
2022/02/12 03:02:42;;;;;;;7.38;4.20;;;;;;;;;;5031736;28;20399;-49
2022/02/12 03:05:09;;;;;;;12.25;5.22;;;;;;;;;;5031150;28;20171;-46
2022/02/12 03:07:38;;;;;;;11.13;5.75;;;;;;;;;;5031433;28;20179;-47
2022/02/12 03:10:05;;;;;;;14.23;4.90;;;;;;;;;;5031507;28;20205;-46
2022/02/12 03:12:31;;;;;;;12.15;4.43;;;;;;;;;;5030068;28;20196;-50
2022/02/12 03:14:57;;;;;;;12.57;4.50;;;;;;;;;;5031098;28;20574;-50
2022/02/12 03:17:23;;;;;;;12.50;4.90;;;;;;;;;;5031912;28;20166;-46
2022/02/12 03:19:49;;;;;;;15.97;4.90;;;;;;;;;;5031595;28;20829;-47
2022/02/12 03:22:14;;;;;;;15.93;4.97;;;;;;;;;;5031707;28;20407;-47
2022/02/12 03:24:40;;;;;;;12.83;4.70;;;;;;;;;;5031553;28;20465;-46
2022/02/12 03:27:07;;;;;;;8.73;4.53;;;;;;;;;;5031612;28;20465;-47
2022/02/12 03:29:33;;;;;;;7.47;4.18;;;;;;;;;;5030037;28;20461;-46
2022/02/12 03:31:59;;;;;;;8.00;4.43;;;;;;;;;;5031279;28;20175;-47
2022/02/12 03:34:25;;;;;;;10.93;5.30;;;;;;;;;;5031369;28;20172;-47
2022/02/12 03:36:51;;;;;;;12.73;5.07;;;;;;;;;;5031227;28;20453;-49
2022/02/12 03:39:17;;;;;;;9.00;5.43;;;;;;;;;;5031032;28;20429;-49
2022/02/12 03:41:43;;;;;;;11.43;4.67;;;;;;;;;;5031287;28;20890;-48
2022/02/12 03:44:09;;;;;;;9.20;4.70;;;;;;;;;;5030297;28;20440;-47
2022/02/12 03:46:35;;;;;;;8.90;5.13;;;;;;;;;;5031095;28;20402;-47
2022/02/12 03:49:01;;;;;;;22.90;4.95;;;;;;;;;;5030863;28;20461;-46
2022/02/12 03:51:27;;;;;;;8.80;6.15;;;;;;;;;;5031196;28;20740;-47
2022/02/12 03:53:53;;;;;;;19.17;5.10;;;;;;;;;;5024584;28;20233;-47
2022/02/12 03:56:19;;;;;;;8.75;4.57;;;;;;;;;;5025132;28;20418;-49
2022/02/12 03:58:48;;;;;;;14.80;5.27;;;;;;;;;;5025922;28;20569;-47
2022/02/12 04:01:14;;;;;;;7.15;4.93;;;;;;;;;;5027097;28;20418;-47
2022/02/12 04:03:40;;;;;;;4.53;3.33;;;;;;;;;;5026968;28;20183;-47
2022/02/12 04:06:05;;;;;;;8.80;4.70;;;;;;;;;;5026290;28;20418;-49
2022/02/12 04:08:31;;;;;;;8.23;5.00;;;;;;;;;;5024874;28;20432;-48
2022/02/12 04:10:57;;;;;;;7.60;4.80;;;;;;;;;;5025661;28;20454;-47
2022/02/12 04:13:23;;;;;;;11.23;5.03;;;;;;;;;;5025789;28;20461;-47
2022/02/12 04:15:49;;;;;;;12.43;4.63;;;;;;;;;;5027004;28;20422;-46
2022/02/12 04:18:16;;;;;;;14.13;4.77;;;;;;;;;;5030934;28;20394;-47
2022/02/12 04:20:42;;;;;;;6.88;4.25;;;;;;;;;;5030643;28;20426;-48
2022/02/12 04:23:08;;;;;;;13.48;6.10;;;;;;;;;;5030836;28;20172;-46
2022/02/12 04:25:36;;;;;;;17.13;5.00;;;;;;;;;;5034517;28;20632;-47
2022/02/12 04:28:04;;;;;;;11.88;5.70;;;;;;;;;;5034801;28;20203;-45
2022/02/12 04:30:30;;;;;;;8.48;5.75;;;;;;;;;;5033659;28;20692;-49
2022/02/12 04:32:56;;;;;;;4.75;4.32;;;;;;;;;;5035020;28;20710;-45
2022/02/12 04:35:22;;;;;;;12.10;5.47;;;;;;;;;;5034982;28;20164;-44
2022/02/12 04:37:48;;;;;;;11.33;5.33;;;;;;;;;;5034889;28;20402;-44
2022/02/12 04:40:14;;;;;;;5.73;4.40;;;;;;;;;;5034447;28;20431;-45
2022/02/12 04:42:40;;;;;;;9.25;5.65;;;;;;;;;;5034461;28;20406;-44
2022/02/12 04:45:07;;;;;;;13.82;5.32;;;;;;;;;;5034586;28;20171;-44
2022/02/12 04:47:33;;;;;;;7.95;4.70;;;;;;;;;;5034546;28;20194;-43
2022/02/12 04:49:59;;;;;;;9.30;5.30;;;;;;;;;;5034135;28;20272;-45
2022/02/12 04:52:24;;;;;;;8.17;5.10;;;;;;;;;;5033345;28;20614;-45
2022/02/12 04:54:50;;;;;;;11.10;5.23;;;;;;;;;;5034274;28;20894;-45
2022/02/12 04:57:16;;;;;;;10.65;4.55;;;;;;;;;;5034163;28;20875;-47
2022/02/12 04:59:43;;;;;;;10.63;4.78;;;;;;;;;;5033981;28;20195;-47
2022/02/12 05:02:09;;;;;;;10.57;4.38;;;;;;;;;;5034155;28;20175;-48
2022/02/12 05:04:35;;;;;;;7.33;5.00;;;;;;;;;;5034266;28;20621;-45
2022/02/12 05:07:01;;;;;;;10.53;4.90;;;;;;;;;;5034050;28;20406;-45
2022/02/12 05:09:27;;;;;;;10.33;5.67;;;;;;;;;;5033751;28;20453;-45
2022/02/12 05:11:54;;;;;;;15.43;5.63;;;;;;;;;;5033771;28;20402;-45
2022/02/12 05:14:21;;;;;;;14.07;4.68;;;;;;;;;;5033972;28;20160;-47
2022/02/12 05:16:48;;;;;;;9.15;4.85;;;;;;;;;;5033009;28;20571;-45
2022/02/12 05:19:14;;;;;;;11.23;4.88;;;;;;;;;;5033659;28;20183;-48
2022/02/12 05:21:41;;;;;;;17.40;4.88;;;;;;;;;;5033710;28;20168;-48
2022/02/12 05:24:07;;;;;;;5.47;4.10;;;;;;;;;;5034026;28;20267;-46
2022/02/12 05:26:33;;;;;;;6.90;4.20;;;;;;;;;;5033750;28;20182;-45
2022/02/12 05:28:59;;;;;;;4.17;3.77;;;;;;;;;;5033240;28;20203;-47
2022/02/12 05:31:25;;;;;;;6.00;3.95;;;;;;;;;;5033714;28;20409;-48
2022/02/12 05:33:51;;;;;;;11.73;5.03;;;;;;;;;;5033575;28;20167;-45
2022/02/12 05:36:17;;;;;;;11.50;4.70;;;;;;;;;;5032629;28;20403;-45
2022/02/12 05:38:43;;;;;;;6.13;4.68;;;;;;;;;;5033490;28;20417;-45
2022/02/12 05:41:10;;;;;;;10.70;4.60;;;;;;;;;;5033212;28;20174;-45
2022/02/12 05:43:36;;;;;;;5.97;4.40;;;;;;;;;;5033417;28;20407;-44
2022/02/12 05:46:03;;;;;;;8.90;4.50;;;;;;;;;;5032429;28;20180;-45
2022/02/12 05:48:29;;;;;;;7.50;4.10;;;;;;;;;;5033362;28;20222;-47
2022/02/12 05:50:55;;;;;;;17.70;5.28;;;;;;;;;;5033030;28;20203;-47
2022/02/12 05:53:22;;;;;;;15.07;4.70;;;;;;;;;;5033305;28;20258;-48
2022/02/12 05:55:48;;;;;;;6.47;4.15;;;;;;;;;;5033359;28;20180;-45
2022/02/12 05:58:14;;;;;;;10.73;4.50;;;;;;;;;;5033592;28;20191;-46
2022/02/12 06:00:40;;;;;;;5.13;4.50;;;;;;;;;;5033045;28;20480;-49
2022/02/12 06:03:06;;;;;;;15.80;5.30;;;;;;;;;;5033154;28;20179;-47
2022/02/12 06:05:32;;;;;;;10.23;4.23;;;;;;;;;;5033069;28;20164;-44
2022/02/12 06:08:04;;;;;;;8.43;5.15;;;;;;;;;;5033005;28;20432;-44
2022/02/12 06:10:30;;;;;;;10.95;4.60;;;;;;;;;;5032637;28;20203;-44
2022/02/12 06:12:56;;;;;;;8.40;4.23;;;;;;;;;;5032780;28;20618;-44
2022/02/12 06:15:22;;;;;;;9.07;4.57;;;;;;;;;;5032824;28;20399;-45
2022/02/12 06:17:48;;;;;;;13.90;4.47;;;;;;;;;;5031782;28;20469;-44
2022/02/12 06:20:14;;;;;;;14.75;4.88;;;;;;;;;;5032611;28;20422;-45
2022/02/12 06:22:40;;;;;;;6.28;3.35;;;;;;;;;;5032751;28;20184;-45
2022/02/12 06:25:07;;;;;;;9.60;4.87;;;;;;;;;;5032674;28;20183;-47
2022/02/12 06:27:33;;;;;;;20.70;5.20;;;;;;;;;;5032621;28;20403;-46
2022/02/12 06:29:59;;;;;;;5.40;4.10;;;;;;;;;;5032088;28;20667;-47
2022/02/12 06:32:26;;;;;;;5.95;3.35;;;;;;;;;;5032554;28;20417;-46
2022/02/12 06:34:55;;;;;;;16.92;5.25;;;;;;;;;;5032515;28;20167;-45
2022/02/12 06:37:21;;;;;;;5.72;3.92;;;;;;;;;;5032452;28;20168;-45
2022/02/12 06:39:47;;;;;;;8.45;4.15;;;;;;;;;;5032034;28;20651;-45
2022/02/12 06:42:14;;;;;;;7.63;4.90;;;;;;;;;;5032180;28;20652;-45
2022/02/12 06:44:40;;;;;;;8.90;4.22;;;;;;;;;;5032177;28;20180;-48
2022/02/12 06:47:08;;;;;;;8.20;4.43;;;;;;;;;;5031284;28;20235;-47
2022/02/12 06:49:34;;;;;;;6.10;4.20;;;;;;;;;;5031894;28;20199;-45
2022/02/12 06:52:00;;;;;;;3.60;3.30;;;;;;;;;;5032120;28;20175;-44
2022/02/12 06:54:26;;;;;;;14.30;4.93;;;;;;;;;;5033544;28;20171;-48
2022/02/12 06:56:52;;;;;;;10.53;4.37;;;;;;;;;;5033469;28;20445;-48
2022/02/12 06:59:18;;;;;;;4.95;3.85;;;;;;;;;;5033774;28;20422;-47
2022/02/12 07:01:44;;;;;;;4.47;4.07;;;;;;;;;;5033862;28;20178;-48
2022/02/12 07:04:10;;;;;;;6.30;4.23;;;;;;;;;;5034304;28;20163;-47
2022/02/12 07:06:36;;;;;;;10.18;4.32;;;;;;;;;;5034195;28;20553;-46
2022/02/12 07:09:04;;;;;;;8.33;3.77;;;;;;;;;;5032817;28;20706;-46
2022/02/12 07:11:30;;;;;;;10.02;4.32;;;;;;;;;;5034393;28;20403;-48
2022/02/12 07:13:56;;;;;;;14.88;4.90;;;;;;;;;;5034735;28;20168;-47
2022/02/12 07:16:24;;;;;;;9.60;4.70;;;;;;;;;;5035122;28;20175;-48
2022/02/12 07:18:51;;;;;;;10.88;3.65;;;;;;;;;;5034863;28;20406;-47
2022/02/12 07:21:20;;;;;;;10.77;4.70;;;;;;;;;;5034319;28;20172;-48
2022/02/12 07:23:46;;;;;;;6.60;4.20;;;;;;;;;;5030694;28;20175;-47
2022/02/12 07:26:12;;;;;;;7.03;3.97;;;;;;;;;;5033910;28;20184;-48
2022/02/12 07:28:42;;;;;;;7.80;4.27;;;;;;;;;;5032822;28;20476;-46
2022/02/12 07:31:09;;;;;;;9.48;3.90;;;;;;;;;;5032510;28;20816;-47
2022/02/12 07:33:35;;;;;;;7.07;3.60;;;;;;;;;;5033090;28;20653;-46
2022/02/12 07:36:01;;;;;;;14.07;4.50;;;;;;;;;;5033707;28;20250;-49
2022/02/12 07:38:27;;;;;;;8.57;4.18;;;;;;;;;;5034370;28;20173;-48
2022/02/12 07:40:53;;;;;;;12.57;4.70;;;;;;;;;;5032713;28;20203;-46
2022/02/12 07:43:19;;;;;;;16.70;4.73;;;;;;;;;;5034051;28;20489;-46
2022/02/12 07:45:45;;;;;;;14.43;4.57;;;;;;;;;;5034208;28;20528;-47
2022/02/12 07:48:12;;;;;;;19.53;4.70;;;;;;;;;;5033757;28;20262;-47
2022/02/12 07:50:38;;;;;;;15.38;4.75;;;;;;;;;;5033527;28;20792;-49
2022/02/12 07:53:05;;;;;;;12.50;4.70;;;;;;;;;;5033335;28;20198;-46
2022/02/12 07:55:31;;;;;;;6.70;3.92;;;;;;;;;;5031958;28;20457;-47
2022/02/12 07:57:57;;;;;;;13.07;4.30;;;;;;;;;;5033350;28;20640;-48
2022/02/12 08:00:24;;;;;;;4.72;3.28;;;;;;;;;;5032423;28;20198;-47
2022/02/12 08:02:50;;;;;;;13.20;4.32;;;;;;;;;;5033115;28;20553;-49
2022/02/12 08:05:20;;;;;;;5.60;3.85;;;;;;;;;;5033240;28;20178;-47
2022/02/12 08:07:46;;;;;;;10.30;3.90;;;;;;;;;;5033033;28;20164;-47
2022/02/12 08:12:57;;;;;;;11.63;3.90;;;;;;;;;;5032780;28;20397;-48
2022/02/12 08:15:25;;;;;;;6.75;4.18;;;;;;;;;;5032650;28;20159;-48
2022/02/12 08:17:50;;;;;;;12.88;4.47;;;;;;;;;;5031693;28;20523;-47
2022/02/12 08:20:16;;;;;;;6.03;4.07;;;;;;;;;;5032472;28;20210;-49
2022/02/12 08:22:43;;;;;;;6.33;3.73;;;;;;;;;;5032299;28;20978;-49
2022/02/12 08:25:09;;;;;;;10.38;3.60;;;;;;;;;;5032691;28;20399;-48
2022/02/12 08:27:35;;;;;;;9.48;3.58;;;;;;;;;;5032506;28;20171;-49
2022/02/12 08:30:02;;;;;;;15.93;4.87;;;;;;;;;;5032154;28;20207;-47
2022/02/12 08:32:28;;;;;;;12.70;4.22;;;;;;;;;;5032522;28;20443;-46
2022/02/12 08:34:55;;;;;;;13.40;3.67;;;;;;;;;;5032344;28;20168;-48
2022/02/12 08:37:21;;;;;;;7.53;3.10;;;;;;;;;;5032557;28;20783;-48
2022/02/12 08:39:49;;;;;;;6.30;3.88;;;;;;;;;;5032059;28;20252;-48
2022/02/12 08:42:15;;;;;;;7.38;3.85;;;;;;;;;;5030749;28;20291;-47
2022/02/12 08:44:41;;;;;;;5.50;3.92;;;;;;;;;;5032221;28;20822;-47
2022/02/12 08:47:09;;;;;;;11.27;3.00;;;;;;;;;;5032082;28;20168;-49
2022/02/12 08:49:35;;;;;;;5.88;2.90;;;;;;;;;;5031901;28;20472;-49
2022/02/12 08:52:01;;;;;;;10.73;3.65;;;;;;;;;;5028274;28;20167;-49
2022/02/12 08:54:27;;;;;;;4.97;3.30;;;;;;;;;;5030736;28;20598;-50
2022/02/12 08:56:53;;;;;;;8.90;2.73;;;;;;;;;;5032127;28;20916;-50
2022/02/12 08:59:19;;;;;;;8.67;3.67;;;;;;;;;;5031974;28;20427;-48
2022/02/12 09:01:45;;;;;;;8.30;2.37;;;;;;;;;;5033012;28;20404;-49
2022/02/12 09:04:12;;;;;;;5.73;2.83;;;;;;;;;;5032540;28;20828;-49
2022/02/12 09:06:39;;;;;;;9.63;3.77;;;;;;;;;;5032859;28;20412;-49
2022/02/12 09:09:08;;;;;;;8.40;2.90;;;;;;;;;;5030675;28;20493;-47
2022/02/12 09:11:35;;;;;;;11.03;3.03;;;;;;;;;;5033156;28;20413;-50
2022/02/12 09:14:01;;;;;;;6.23;2.97;;;;;;;;;;5033973;28;20924;-48
2022/02/12 09:16:27;;;;;;;14.00;2.93;;;;;;;;;;5034913;28;20437;-47
2022/02/12 09:18:53;;;;;;;4.90;3.07;;;;;;;;;;5034478;28;21051;-50
2022/02/12 09:21:21;;;;;;;4.30;2.80;;;;;;;;;;5034738;28;20784;-49
2022/02/12 09:23:47;;;;;;;11.20;2.97;;;;;;;;;;5035048;28;20404;-48
2022/02/12 09:26:13;;;;;;;10.33;4.43;;;;;;;;;;5036256;28;20439;-47
2022/02/12 09:28:39;;;;;;;6.93;2.90;;;;;;;;;;5035342;28;20498;-49
2022/02/12 09:31:04;;;;;;;9.47;2.70;;;;;;;;;;5034574;28;20421;-49
2022/02/12 09:33:30;;;;;;;12.00;3.33;;;;;;;;;;5036570;28;20401;-49
2022/02/12 09:35:56;;;;;;;4.83;2.77;;;;;;;;;;5036496;28;20401;-50
2022/02/12 09:38:23;;;;;;;4.70;2.93;;;;;;;;;;5037768;28;20964;-48
2022/02/12 09:40:50;;;;;;;11.93;3.90;;;;;;;;;;5037098;28;20501;-50
2022/02/12 09:43:16;;;;;;;8.53;4.10;;;;;;;;;;5038273;28;20434;-52
2022/02/12 09:45:44;;;;;;;4.63;2.57;;;;;;;;;;5039142;28;20727;-52
2022/02/12 09:48:13;;;;;;;8.73;3.13;;;;;;;;;;5039392;28;20880;-52
2022/02/12 09:50:40;;;;;;;7.50;3.73;;;;;;;;;;5038679;28;20915;-49
2022/02/12 09:53:06;;;;;;;12.00;2.73;;;;;;;;;;5021076;28;20413;-51
2022/02/12 09:55:35;;;;;;;9.43;2.83;;;;;;;;;;5039662;28;20407;-50
2022/02/12 09:58:01;;;;;;;5.33;2.97;;;;;;;;;;5039002;28;20417;-51
2022/02/12 10:00:26;;;;;;;6.70;3.60;;;;;;;;;;5037226;28;20430;-50
2022/02/12 10:02:54;;;;;;;3.83;3.40;;;;;;;;;;5035671;28;20941;-49
2022/02/12 10:05:31;;;;;;;6.70;2.40;;;;;;;;;;5037964;28;20414;-51
2022/02/12 10:08:00;;;;;;;14.20;2.90;;;;;;;;;;5037775;28;20774;-49
2022/02/12 10:10:28;;;;;;;7.23;3.03;;;;;;;;;;5036091;28;21014;-51
2022/02/12 10:13:09;;;;;;;8.43;3.13;;;;;;;;;;5035296;28;20454;-49
2022/02/12 10:15:36;;;;;;;6.57;2.83;;;;;;;;;;5036977;28;20467;-50
2022/02/12 10:18:03;;;;;;;11.30;3.13;;;;;;;;;;5035979;28;20402;-49
2022/02/12 10:20:33;;;;;;;7.60;3.10;;;;;;;;;;5035362;28;20537;-50
2022/02/12 10:23:21;;;;;;;6.10;2.67;;;;;;;;;;5037314;28;20406;-51
2022/02/12 10:25:48;;;;;;;12.10;3.37;;;;;;;;;;5036232;28;20425;-50
2022/02/12 10:28:15;;;;;;;9.57;3.07;;;;;;;;;;5036221;28;20426;-49
2022/02/12 10:30:45;;;;;;;8.30;3.07;;;;;;;;;;5036504;28;20470;-51
2022/02/12 10:33:11;;;;;;;9.60;3.40;;;;;;;;;;5036093;28;20416;-50
2022/02/12 10:35:38;;;;;;;9.67;3.50;;;;;;;;;;5035289;28;20402;-51
2022/02/12 10:38:07;;;;;;;11.90;3.33;;;;;;;;;;5037317;28;20456;-50
2022/02/12 10:40:34;;;;;;;8.60;3.23;;;;;;;;;;5037421;28;20934;-50
2022/02/12 10:43:01;;;;;;;7.20;2.63;;;;;;;;;;5019861;28;20501;-49
2022/02/12 10:45:28;;;;;;;10.50;3.50;;;;;;;;;;5037192;28;20924;-50
2022/02/12 10:47:57;;;;;;;11.60;3.20;;;;;;;;;;5037234;28;21073;-51
2022/02/12 10:50:26;;;;;;;5.33;2.90;;;;;;;;;;5037759;28;20468;-51
2022/02/12 10:52:56;;;;;;;6.27;2.60;;;;;;;;;;5037885;28;20416;-51
2022/02/12 10:55:41;;;;;;;8.97;2.53;;;;;;;;;;5019505;28;20396;-51
2022/02/12 10:58:13;;;;;;;4.97;2.60;;;;;;;;;;5036121;28;20415;-52
2022/02/12 11:00:43;;;;;;;3.63;2.73;;;;;;;;;;5036083;28;20864;-53
2022/02/12 11:03:12;;;;;;;8.47;3.00;;;;;;;;;;5035369;28;20457;-52
2022/02/12 11:05:40;;;;;;;6.70;3.17;;;;;;;;;;5035684;28;21050;-50
2022/02/12 11:08:07;;;;;;;7.43;2.97;;;;;;;;;;5036196;28;20417;-52
2022/02/12 11:10:39;;;;;;;3.80;2.60;;;;;;;;;;5034970;28;20469;-52
2022/02/12 11:13:06;;;;;;;5.73;2.43;;;;;;;;;;5034513;28;20460;-51
2022/02/12 11:15:33;;;;;;;8.03;2.77;;;;;;;;;;5035865;28;20459;-53
2022/02/12 11:18:01;;;;;;;4.23;2.53;;;;;;;;;;5035638;28;20812;-49
2022/02/12 11:20:30;;;;;;;11.23;3.20;;;;;;;;;;5035345;28;20416;-52
2022/02/12 11:23:14;;;;;;;5.97;2.50;;;;;;;;;;5037560;28;20408;-51
2022/02/12 11:25:40;;;;;;;7.63;2.80;;;;;;;;;;5035557;28;20533;-51
2022/02/12 11:28:11;;;;;;;7.80;2.30;;;;;;;;;;5033929;28;20401;-51
2022/02/12 11:30:38;;;;;;;4.73;2.27;;;;;;;;;;5034831;28;20478;-53
2022/02/12 11:33:20;;;;;;;7.30;2.80;;;;;;;;;;5035084;28;20402;-52
2022/02/12 11:36:05;;;;;;;3.50;2.73;;;;;;;;;;5036320;28;20399;-52
2022/02/12 11:38:35;;;;;;;10.47;2.13;;;;;;;;;;5035302;28;20883;-51
2022/02/12 11:41:19;;;;;;;6.43;2.57;;;;;;;;;;5033898;28;20486;-52
2022/02/12 11:43:46;;;;;;;2.90;2.50;;;;;;;;;;5035072;28;20464;-52
2022/02/12 11:46:12;;;;;;;8.13;3.27;;;;;;;;;;5036585;28;20405;-48
2022/02/12 11:48:38;;;;;;;8.73;2.43;;;;;;;;;;5034979;28;20441;-53
2022/02/12 11:51:12;;;;;;;10.10;2.80;;;;;;;;;;5034203;28;20458;-52
2022/02/12 11:53:54;;;;;;;4.90;2.90;;;;;;;;;;5035111;28;20384;-53
2022/02/12 11:56:20;;;;;;;8.03;3.40;;;;;;;;;;5036518;28;20412;-52
2022/02/12 11:58:46;;;;;;;5.87;2.83;;;;;;;;;;5035784;28;20401;-52
2022/02/12 12:01:35;;;;;;;3.80;2.60;;;;;;;;;;5034633;28;20406;-52
2022/02/12 12:04:11;;;;;;;6.20;2.50;;;;;;;;;;5033134;28;20389;-53
2022/02/12 12:06:37;;;;;;;8.30;2.93;;;;;;;;;;5032866;28;20429;-51
2022/02/12 12:09:05;;;;;;;7.03;2.47;;;;;;;;;;5033600;28;20526;-51
2022/02/12 12:11:32;;;;;;;9.20;2.43;;;;;;;;;;5032244;28;20490;-52
2022/02/12 12:14:02;;;;;;;7.10;2.60;;;;;;;;;;5031306;28;20955;-52
2022/02/12 12:16:33;;;;;;;4.83;2.10;;;;;;;;;;5031473;28;20434;-52
2022/02/12 12:19:01;;;;;;;2.73;2.27;;;;;;;;;;5030927;28;20485;-51
2022/02/12 12:21:29;;;;;;;3.37;1.90;;;;;;;;;;5031439;28;20491;-52
2022/02/12 12:24:01;;;;;;;7.20;2.40;;;;;;;;;;5032374;28;20404;-50
2022/02/12 12:26:40;;;;;;;3.17;2.00;;;;;;;;;;5032834;28;20880;-52
2022/02/12 12:32:04;;;;;;;2.73;2.10;;;;;;;;;;5031190;28;20405;-51
2022/02/12 12:34:31;;;;;;;2.90;2.33;;;;;;;;;;5031778;28;20453;-52
2022/02/12 12:36:57;;;;;;;5.50;2.40;;;;;;;;;;5032990;28;20482;-52
2022/02/12 12:39:31;;;;;;;5.43;2.60;;;;;;;;;;5032618;28;20529;-50
2022/02/12 12:41:59;;;;;;;4.87;2.30;;;;;;;;;;5034656;28;20413;-49
2022/02/12 12:44:27;;;;;;;10.00;2.37;;;;;;;;;;5035656;28;20908;-51
2022/02/12 12:46:54;;;;;;;6.30;2.50;;;;;;;;;;5038874;28;20458;-52
2022/02/12 12:49:34;;;;;;;5.43;2.63;;;;;;;;;;5037193;28;20469;-52
2022/02/12 12:52:01;;;;;;;6.00;2.33;;;;;;;;;;5037077;28;20953;-50
2022/02/12 12:54:27;;;;;;;4.40;2.37;;;;;;;;;;5036664;28;20999;-49
2022/02/12 12:56:53;;;;;;;9.83;3.00;;;;;;;;;;5033345;28;20514;-48
2022/02/12 12:59:21;;;;;;;4.70;3.43;;;;;;;;;;5034026;28;20423;-48
2022/02/12 13:02:01;;;;;;;4.40;2.40;;;;;;;;;;5034303;28;20401;-51
2022/02/12 13:04:27;;;;;;;5.53;2.67;;;;;;;;;;5034176;28;20438;-49
2022/02/12 13:06:54;;;;;;;6.13;3.30;;;;;;;;;;5034181;28;20902;-48
2022/02/12 13:09:20;;;;;;;5.90;2.90;;;;;;;;;;5033792;28;20467;-50
2022/02/12 13:11:46;;;;;;;8.67;2.63;;;;;;;;;;5034104;28;20408;-49
2022/02/12 13:14:13;;;;;;;3.83;2.30;;;;;;;;;;5033947;28;20831;-50
2022/02/12 13:16:44;;;;;;;7.93;2.90;;;;;;;;;;5033913;28;20403;-48
2022/02/12 13:19:11;;;;;;;6.17;3.10;;;;;;;;;;5033880;28;20445;-50
2022/02/12 13:21:37;;;;;;;5.40;3.20;;;;;;;;;;5033888;28;20405;-49
2022/02/12 13:24:04;;;;;;;3.90;3.10;;;;;;;;;;5033817;28;20409;-50
2022/02/12 13:26:31;;;;;;;7.67;3.20;;;;;;;;;;5032745;28;20425;-49
2022/02/12 13:28:57;;;;;;;5.20;2.87;;;;;;;;;;5033427;28;20430;-50
2022/02/12 13:31:26;;;;;;;5.10;3.10;;;;;;;;;;5033567;28;20826;-48
2022/02/12 13:34:02;;;;;;;8.00;3.00;;;;;;;;;;5033495;28;20441;-48
2022/02/12 13:36:28;;;;;;;5.20;2.77;;;;;;;;;;5032582;28;20460;-51
2022/02/12 13:39:06;;;;;;;5.27;2.43;;;;;;;;;;5033313;28;20396;-48
2022/02/12 13:41:39;;;;;;;4.90;2.87;;;;;;;;;;5033450;28;20411;-49
2022/02/12 13:44:05;;;;;;;5.17;2.73;;;;;;;;;;5033385;28;20404;-50
2022/02/12 13:46:35;;;;;;;6.00;2.80;;;;;;;;;;5033568;28;20436;-51
2022/02/12 13:49:13;;;;;;;6.73;3.70;;;;;;;;;;5032982;28;20449;-50
2022/02/12 13:51:50;;;;;;;3.60;2.80;;;;;;;;;;5033606;28;20409;-47
2022/02/12 13:54:16;;;;;;;7.77;3.13;;;;;;;;;;5033081;28;20881;-52
2022/02/12 13:56:44;;;;;;;6.13;2.50;;;;;;;;;;5031559;28;20452;-48
2022/02/12 13:59:11;;;;;;;5.73;3.10;;;;;;;;;;5032754;28;20767;-48
2022/02/12 14:01:37;;;;;;;5.83;2.83;;;;;;;;;;5033310;28;20406;-50
2022/02/12 14:04:03;;;;;;;8.10;3.70;;;;;;;;;;5033068;28;20426;-48
2022/02/12 14:06:30;;;;;;;8.00;3.17;;;;;;;;;;5033099;28;20486;-48
2022/02/12 14:09:00;;;;;;;4.23;3.17;;;;;;;;;;5032545;28;20436;-47
2022/02/12 14:11:30;;;;;;;3.70;2.70;;;;;;;;;;5033268;28;20392;-48
2022/02/12 14:13:56;;;;;;;3.53;2.60;;;;;;;;;;5032987;28;20405;-50
2022/02/12 14:16:22;;;;;;;9.03;3.10;;;;;;;;;;5033112;28;20404;-50
2022/02/12 14:18:48;;;;;;;5.10;3.10;;;;;;;;;;5032812;28;20910;-51
2022/02/12 14:21:14;;;;;;;5.00;2.83;;;;;;;;;;5032604;28;20400;-48
2022/02/12 14:23:40;;;;;;;3.03;2.47;;;;;;;;;;5032652;28;20891;-48
2022/02/12 14:26:06;;;;;;;4.67;2.50;;;;;;;;;;5031601;28;20439;-48
2022/02/12 14:28:33;;;;;;;3.77;2.73;;;;;;;;;;5012617;28;20472;-48
2022/02/12 14:30:58;;;;;;;3.80;2.30;;;;;;;;;;5012477;28;20480;-48
2022/02/12 14:33:25;;;;;;;7.37;2.60;;;;;;;;;;5012674;28;21018;-48
2022/02/12 14:35:53;;;;;;;4.87;2.83;;;;;;;;;;5025959;28;20428;-48
2022/02/12 14:38:19;;;;;;;8.30;2.53;;;;;;;;;;5032364;28;20406;-49
2022/02/12 14:40:46;;;;;;;7.03;3.00;;;;;;;;;;5032224;28;20454;-48
2022/02/12 14:43:12;;;;;;;4.60;2.50;;;;;;;;;;5032389;28;20443;-48
2022/02/12 14:45:38;;;;;;;6.60;2.07;;;;;;;;;;5032227;28;20432;-47
2022/02/12 14:48:04;;;;;;;6.33;2.47;;;;;;;;;;5032301;28;20890;-48
2022/02/12 14:50:31;;;;;;;4.20;2.70;;;;;;;;;;5031880;28;20455;-49
2022/02/12 14:52:57;;;;;;;1.93;1.83;;;;;;;;;;5032297;28;20390;-51